Time;durP1;ratioP1;P1;durP2;ratioP2;P2;SDS_P1;SDS_P2;PMS_P1;PMS_P2;Temp;Humidity;BMP_temperature;BMP_pressure;BME280_temperature;BME280_humidity;BME280_pressure;Samples;Min_cycle;Max_cycle;Signal;HPM_P1;HPM_P2
2021/06/15 00:00:45;;;;;;;7.93;6.00;;;19.20;96.90;;;;;;5110013;28;20462;-39
2021/06/15 00:03:10;;;;;;;10.75;6.75;;;19.10;96.90;;;;;;5110245;28;20456;-39
2021/06/15 00:05:36;;;;;;;7.63;5.25;;;19.10;96.90;;;;;;5110876;28;20114;-39
2021/06/15 00:08:02;;;;;;;7.13;5.70;;;19.10;96.90;;;;;;5109809;28;20478;-39
2021/06/15 00:10:28;;;;;;;9.82;5.95;;;19.10;96.80;;;;;;5110347;28;20567;-39
2021/06/15 00:12:55;;;;;;;7.32;6.03;;;19.10;96.90;;;;;;5109341;28;20051;-37
2021/06/15 00:15:22;;;;;;;7.70;5.32;;;19.00;96.80;;;;;;5110325;28;20027;-38
2021/06/15 00:17:48;;;;;;;9.15;5.28;;;19.00;96.80;;;;;;5110353;27;20411;-38
2021/06/15 00:20:14;;;;;;;7.38;5.53;;;19.00;96.80;;;;;;5108512;28;20550;-39
2021/06/15 00:22:41;;;;;;;7.90;6.60;;;19.00;96.80;;;;;;5110184;28;20027;-43
2021/06/15 00:25:11;;;;;;;7.88;5.85;;;19.00;97.10;;;;;;5109876;28;20040;-39
2021/06/15 00:27:37;;;;;;;8.70;5.55;;;19.00;96.80;;;;;;5109972;28;20067;-45
2021/06/15 00:30:08;;;;;;;8.90;5.75;;;19.00;96.80;;;;;;5109632;28;20107;-37
2021/06/15 00:32:34;;;;;;;6.22;5.35;;;19.00;96.80;;;;;;5110559;28;20123;-39
2021/06/15 00:34:59;;;;;;;10.80;5.60;;;19.00;96.70;;;;;;5108930;28;20161;-39
2021/06/15 00:37:25;;;;;;;8.00;5.57;;;19.00;96.80;;;;;;5110126;28;20118;-39
2021/06/15 00:39:50;;;;;;;7.10;5.10;;;19.00;96.80;;;;;;5109388;28;20107;-39
2021/06/15 00:42:16;;;;;;;6.03;5.35;;;19.00;96.80;;;;;;5109430;28;20031;-38
2021/06/15 00:44:42;;;;;;;8.07;5.28;;;19.00;96.90;;;;;;5109446;28;20073;-38
2021/06/15 00:47:07;;;;;;;8.43;5.60;;;19.00;96.90;;;;;;5109417;28;20493;-39
2021/06/15 00:49:37;;;;;;;5.88;5.00;;;19.00;96.90;;;;;;5108932;28;20020;-42
2021/06/15 00:52:04;;;;;;;7.32;5.30;;;18.90;96.90;;;;;;5109500;28;20028;-38
2021/06/15 00:54:30;;;;;;;6.53;5.70;;;19.00;96.90;;;;;;5109711;28;20028;-41
2021/06/15 00:56:55;;;;;;;6.03;4.93;;;18.90;96.90;;;;;;5107786;27;20516;-39
2021/06/15 00:59:21;;;;;;;6.85;5.25;;;18.90;96.90;;;;;;5107849;28;20050;-39
2021/06/15 01:01:47;;;;;;;5.47;4.90;;;18.80;96.90;;;;;;5110036;28;20369;-38
2021/06/15 01:04:15;;;;;;;6.05;4.47;;;18.80;96.90;;;;;;5109259;28;20381;-41
2021/06/15 01:06:46;;;;;;;6.78;4.93;;;18.80;96.90;;;;;;5109053;28;20662;-40
2021/06/15 01:09:22;;;;;;;5.93;4.40;;;18.80;96.90;;;;;;5108613;28;20466;-40
2021/06/15 01:12:19;;;;;;;6.63;4.82;;;18.80;96.80;;;;;;5108826;28;20036;-39
2021/06/15 01:15:02;;;;;;;7.00;4.25;;;18.70;96.80;;;;;;5108964;28;20024;-37
2021/06/15 01:17:36;;;;;;;4.30;3.80;;;18.60;96.80;;;;;;5106459;28;20024;-38
2021/06/15 01:20:05;;;;;;;6.90;4.30;;;18.60;96.80;;;;;;5108598;28;20039;-39
2021/06/15 01:23:11;;;;;;;4.40;3.65;;;18.60;96.80;;;;;;5105502;28;20026;-40
2021/06/15 01:25:55;;;;;;;7.28;5.00;;;18.50;96.80;;;;;;5109242;28;20027;-38
2021/06/15 01:28:35;;;;;;;8.88;5.40;;;18.50;96.90;;;;;;5099891;28;20032;-37
2021/06/15 01:31:26;;;;;;;7.10;4.70;;;18.40;97.00;;;;;;5107999;28;20108;-40
2021/06/15 01:34:03;;;;;;;6.95;4.45;;;18.40;97.00;;;;;;5108360;28;20034;-40
2021/06/15 01:36:32;;;;;;;6.93;5.22;;;18.30;96.90;;;;;;5108481;28;20028;-40
2021/06/15 01:39:05;;;;;;;6.05;4.55;;;18.30;97.00;;;;;;5108069;28;20107;-39
2021/06/15 01:41:55;;;;;;;6.78;4.30;;;18.30;97.00;;;;;;5107691;28;20039;-38
2021/06/15 01:44:22;;;;;;;5.53;4.22;;;18.40;97.00;;;;;;5108286;28;20868;-38
2021/06/15 01:47:05;;;;;;;8.73;4.05;;;18.30;97.00;;;;;;5107771;28;20023;-37
2021/06/15 01:49:40;;;;;;;7.53;4.78;;;18.30;97.00;;;;;;5108957;28;20027;-42
2021/06/15 01:52:10;;;;;;;7.82;4.82;;;18.30;96.90;;;;;;5107442;28;20035;-39
2021/06/15 01:54:37;;;;;;;6.78;4.50;;;18.30;96.90;;;;;;5108364;28;20032;-38
2021/06/15 01:57:04;;;;;;;6.13;4.50;;;18.30;96.90;;;;;;5107880;28;20474;-38
2021/06/15 01:59:33;;;;;;;5.75;4.25;;;18.30;96.90;;;;;;5107848;28;20042;-41
2021/06/15 02:01:59;;;;;;;6.60;3.60;;;18.30;96.90;;;;;;5107833;28;20031;-37
2021/06/15 02:04:32;;;;;;;6.95;4.40;;;18.30;96.90;;;;;;5107955;28;20028;-39
2021/06/15 02:07:00;;;;;;;9.18;4.45;;;18.30;96.80;;;;;;5106946;28;20019;-39
2021/06/15 02:09:27;;;;;;;5.60;4.10;;;18.30;96.80;;;;;;5107436;28;20061;-38
2021/06/15 02:11:53;;;;;;;5.40;4.30;;;18.30;96.80;;;;;;5107347;28;20066;-39
2021/06/15 02:14:25;;;;;;;4.93;4.00;;;18.30;96.80;;;;;;5107813;28;20450;-39
2021/06/15 02:16:57;;;;;;;5.93;4.53;;;18.30;96.70;;;;;;5107604;28;20027;-39
2021/06/15 02:19:27;;;;;;;5.00;3.87;;;18.40;96.70;;;;;;5104188;28;20033;-39
2021/06/15 02:22:00;;;;;;;4.82;3.55;;;18.40;96.60;;;;;;5107275;28;20134;-39
2021/06/15 02:24:37;;;;;;;4.85;3.60;;;18.40;96.60;;;;;;5106775;28;20097;-38
2021/06/15 02:27:05;;;;;;;4.35;3.15;;;18.30;96.50;;;;;;5106679;28;20047;-39
2021/06/15 02:29:30;;;;;;;5.90;3.70;;;18.30;96.50;;;;;;5107729;28;20019;-39
2021/06/15 02:32:00;;;;;;;7.22;4.00;;;18.30;96.40;;;;;;5107150;28;20036;-38
2021/06/15 02:34:28;;;;;;;4.50;4.05;;;18.30;96.40;;;;;;5106061;28;20032;-42
2021/06/15 02:36:55;;;;;;;6.18;3.97;;;18.30;96.30;;;;;;5107031;28;20126;-38
2021/06/15 02:39:27;;;;;;;3.75;2.70;;;18.30;96.30;;;;;;5107268;28;20471;-39
2021/06/15 02:41:55;;;;;;;4.03;3.00;;;18.40;96.20;;;;;;5086738;28;20039;-39
2021/06/15 02:44:23;;;;;;;5.63;3.40;;;18.40;96.20;;;;;;5101153;28;20450;-39
2021/06/15 02:46:53;;;;;;;7.18;3.65;;;18.40;96.10;;;;;;5106976;28;20047;-39
2021/06/15 02:49:21;;;;;;;5.47;3.42;;;18.40;96.10;;;;;;5107095;28;20102;-38
2021/06/15 02:52:06;;;;;;;5.22;3.40;;;18.40;96.00;;;;;;5106988;28;20039;-37
2021/06/15 02:54:41;;;;;;;4.72;3.47;;;18.40;96.00;;;;;;5106496;28;20030;-38
2021/06/15 02:57:07;;;;;;;4.40;3.50;;;18.40;95.90;;;;;;5107445;28;20027;-38
2021/06/15 02:59:36;;;;;;;6.28;3.40;;;18.40;95.90;;;;;;5106809;28;20123;-39
2021/06/15 03:02:01;;;;;;;4.68;3.35;;;18.40;95.80;;;;;;5105890;28;20110;-39
2021/06/15 03:04:27;;;;;;;6.97;3.55;;;18.40;95.80;;;;;;5106964;27;20463;-37
2021/06/15 03:06:52;;;;;;;4.68;3.60;;;18.40;95.90;;;;;;5106898;28;20145;-37
2021/06/15 03:09:18;;;;;;;7.70;4.45;;;18.40;95.80;;;;;;5106240;28;20016;-38
2021/06/15 03:12:15;;;;;;;5.80;3.83;;;18.40;95.80;;;;;;5106430;28;20157;-39
2021/06/15 03:14:46;;;;;;;5.20;4.05;;;18.30;95.90;;;;;;5106764;28;20499;-38
2021/06/15 03:17:12;;;;;;;5.75;3.70;;;18.30;96.00;;;;;;5106032;28;20368;-39
2021/06/15 03:19:46;;;;;;;6.95;4.68;;;18.20;96.10;;;;;;5106004;28;20019;-37
2021/06/15 03:22:22;;;;;;;4.97;3.95;;;18.20;96.20;;;;;;5107236;28;20030;-38
2021/06/15 03:25:00;;;;;;;7.65;4.55;;;18.20;96.30;;;;;;5105445;28;20030;-37
2021/06/15 03:27:54;;;;;;;5.82;4.15;;;18.20;96.40;;;;;;5106761;28;20154;-40
2021/06/15 03:30:21;;;;;;;5.85;4.10;;;18.10;96.40;;;;;;5106537;28;20106;-39
2021/06/15 03:33:04;;;;;;;6.57;4.30;;;18.10;96.40;;;;;;5106439;28;20086;-39
2021/06/15 03:35:32;;;;;;;8.30;4.10;;;18.10;96.60;;;;;;5106284;28;20337;-39
2021/06/15 03:38:01;;;;;;;6.97;4.65;;;18.10;96.60;;;;;;5105828;28;20032;-39
2021/06/15 03:40:30;;;;;;;6.70;4.30;;;18.10;96.70;;;;;;5106525;28;20083;-37
2021/06/15 03:42:57;;;;;;;6.68;4.47;;;18.10;96.70;;;;;;5106270;28;20070;-39
2021/06/15 03:45:26;;;;;;;5.43;4.07;;;18.10;96.70;;;;;;5106112;28;20024;-38
2021/06/15 03:47:53;;;;;;;5.35;4.03;;;18.20;96.70;;;;;;5106280;28;20019;-39
2021/06/15 03:50:20;;;;;;;6.60;4.28;;;18.20;96.70;;;;;;5106812;28;20057;-37
2021/06/15 03:52:52;;;;;;;4.40;3.95;;;18.20;96.70;;;;;;5106366;28;20051;-38
2021/06/15 03:55:20;;;;;;;6.00;3.78;;;18.20;96.70;;;;;;5106136;28;20360;-39
2021/06/15 03:57:48;;;;;;;5.40;3.78;;;18.20;96.70;;;;;;5104203;28;20084;-37
2021/06/15 04:00:17;;;;;;;6.00;4.22;;;18.30;96.60;;;;;;5104441;28;20055;-39
2021/06/15 04:02:48;;;;;;;5.80;3.92;;;18.30;96.60;;;;;;5104275;28;20039;-41
2021/06/15 04:05:16;;;;;;;6.70;4.07;;;18.30;96.60;;;;;;5104228;28;20035;-40
2021/06/15 04:07:43;;;;;;;6.53;3.67;;;18.30;96.50;;;;;;5104123;28;20768;-40
2021/06/15 04:10:14;;;;;;;5.13;3.00;;;18.30;96.40;;;;;;5104897;28;20031;-40
2021/06/15 04:12:40;;;;;;;3.80;2.88;;;18.30;96.40;;;;;;5104693;28;20038;-37
2021/06/15 04:15:09;;;;;;;4.30;2.85;;;18.30;96.30;;;;;;5106445;28;20016;-39
2021/06/15 04:17:44;;;;;;;3.17;2.65;;;18.30;96.20;;;;;;5106681;28;20076;-39
2021/06/15 04:20:12;;;;;;;4.38;2.40;;;18.30;96.00;;;;;;5085609;28;20100;-39
2021/06/15 04:22:44;;;;;;;2.65;2.10;;;18.30;95.80;;;;;;5100299;28;20028;-38
2021/06/15 04:25:10;;;;;;;;;;;18.40;95.40;;;;;;5106623;28;20012;-38
2021/06/15 04:27:37;;;;;;;3.92;1.92;;;18.30;95.10;;;;;;5105519;28;20028;-37
2021/06/15 04:30:05;;;;;;;2.47;1.75;;;18.30;95.10;;;;;;5106012;28;20031;-37
2021/06/15 04:32:52;;;;;;;1.83;1.23;;;18.30;94.90;;;;;;5109712;28;20032;-39
2021/06/15 04:35:26;;;;;;;3.20;1.60;;;18.30;94.80;;;;;;5110178;28;20084;-39
2021/06/15 04:37:53;;;;;;;2.55;1.77;;;18.20;94.70;;;;;;5109551;27;20642;-39
2021/06/15 04:40:24;;;;;;;4.43;1.60;;;18.20;94.50;;;;;;5109691;28;20069;-37
2021/06/15 04:42:52;;;;;;;4.18;1.90;;;18.20;94.40;;;;;;5109942;28;20077;-38
2021/06/15 04:45:28;;;;;;;4.38;1.63;;;18.10;94.20;;;;;;5110157;28;20027;-37
2021/06/15 04:48:06;;;;;;;3.33;1.38;;;18.10;94.20;;;;;;5108718;28;20399;-40
2021/06/15 04:50:32;;;;;;;2.83;1.23;;;18.00;94.20;;;;;;5109715;28;20473;-38
2021/06/15 04:52:59;;;;;;;3.97;2.05;;;18.00;94.30;;;;;;5109534;28;20670;-38
2021/06/15 04:55:28;;;;;;;4.03;1.42;;;18.10;94.30;;;;;;5109246;28;20016;-38
2021/06/15 04:57:58;;;;;;;4.30;1.20;;;18.00;94.00;;;;;;5109016;28;20482;-40
2021/06/15 05:00:26;;;;;;;4.28;1.35;;;18.00;93.80;;;;;;5109654;28;20024;-39
2021/06/15 05:02:52;;;;;;;4.22;1.10;;;18.00;93.50;;;;;;5109092;28;20351;-38
2021/06/15 05:05:23;;;;;;;3.92;1.27;;;17.90;93.50;;;;;;5109647;28;20070;-39
2021/06/15 05:07:56;;;;;;;3.00;1.13;;;17.90;93.50;;;;;;5109670;28;20016;-39
2021/06/15 05:10:23;;;;;;;4.90;1.30;;;17.90;93.40;;;;;;5109204;28;20027;-37
2021/06/15 05:12:52;;;;;;;4.60;1.10;;;17.90;93.40;;;;;;5108778;28;20081;-40
2021/06/15 05:15:21;;;;;;;3.75;1.10;;;18.00;93.40;;;;;;5105372;28;20023;-40
2021/06/15 05:17:48;;;;;;;5.88;1.13;;;17.90;93.10;;;;;;5109160;28;20153;-40
2021/06/15 05:20:15;;;;;;;2.25;0.93;;;17.90;93.10;;;;;;5109223;28;20054;-38
2021/06/15 05:22:54;;;;;;;4.90;0.95;;;17.90;93.20;;;;;;5108949;28;20050;-39
2021/06/15 05:25:19;;;;;;;4.22;1.08;;;17.90;93.10;;;;;;5109008;28;20046;-40
2021/06/15 05:27:48;;;;;;;3.65;1.00;;;17.90;93.10;;;;;;5108685;28;20047;-40
2021/06/15 05:30:13;;;;;;;2.50;0.85;;;18.00;93.10;;;;;;5108667;28;20402;-41
2021/06/15 05:32:39;;;;;;;3.50;1.00;;;18.00;92.70;;;;;;5109740;28;20122;-40
2021/06/15 05:35:05;;;;;;;6.35;0.90;;;18.10;92.70;;;;;;5108774;28;20030;-39
2021/06/15 05:37:33;;;;;;;2.10;0.90;;;18.00;92.70;;;;;;5108995;28;20068;-39
2021/06/15 05:40:03;;;;;;;5.55;1.05;;;18.00;92.60;;;;;;5108363;28;20039;-38
2021/06/15 05:42:29;;;;;;;2.10;0.80;;;18.10;92.60;;;;;;5107402;28;20020;-38
2021/06/15 05:44:55;;;;;;;5.80;0.90;;;18.10;92.60;;;;;;5108413;28;20164;-38
2021/06/15 05:47:20;;;;;;;5.85;1.42;;;18.10;92.60;;;;;;5111121;27;20097;-38
2021/06/15 05:49:46;;;;;;;6.55;1.48;;;18.20;92.50;;;;;;5108588;28;20588;-37
2021/06/15 05:52:12;;;;;;;2.58;1.13;;;18.30;92.50;;;;;;5106072;28;20498;-37
2021/06/15 05:54:39;;;;;;;2.40;0.75;;;18.40;92.40;;;;;;5104935;28;20023;-38
2021/06/15 05:57:09;;;;;;;3.40;1.25;;;18.50;92.30;;;;;;5096311;27;20164;-39
2021/06/15 05:59:35;;;;;;;5.40;1.42;;;18.60;92.10;;;;;;5108185;28;20023;-40
2021/06/15 06:02:01;;;;;;;5.47;0.98;;;18.70;92.00;;;;;;5107377;28;20373;-40
2021/06/15 06:04:29;;;;;;;3.90;0.95;;;18.70;92.00;;;;;;5107931;28;20024;-39
2021/06/15 06:09:41;;;;;;;3.00;1.00;;;18.70;91.70;;;;;;5108146;28;20039;-37
2021/06/15 06:12:08;;;;;;;4.75;1.10;;;18.70;91.50;;;;;;5107024;28;20462;-39
2021/06/15 06:14:33;;;;;;;3.13;0.90;;;18.70;91.60;;;;;;5107653;28;20016;-40
2021/06/15 06:17:01;;;;;;;2.92;0.88;;;18.80;91.60;;;;;;5107002;28;20069;-39
2021/06/15 06:19:26;;;;;;;5.88;1.10;;;18.90;91.50;;;;;;5108734;28;20050;-38
2021/06/15 06:21:53;;;;;;;2.90;1.00;;;19.00;91.20;;;;;;5108019;28;20019;-38
2021/06/15 06:24:19;;;;;;;2.10;0.95;;;19.00;91.10;;;;;;5088658;28;20027;-38
2021/06/15 06:26:48;;;;;;;1.27;0.75;;;19.00;91.10;;;;;;5101927;28;20032;-38
2021/06/15 06:29:18;;;;;;;3.55;1.00;;;19.00;91.00;;;;;;5108724;28;20026;-40
2021/06/15 06:31:43;;;;;;;3.22;1.08;;;19.00;90.60;;;;;;5107796;28;20515;-39
2021/06/15 06:34:09;;;;;;;2.58;0.98;;;19.00;90.60;;;;;;5108160;28;20185;-39
2021/06/15 06:36:34;;;;;;;3.42;1.00;;;19.00;90.40;;;;;;5108119;28;20164;-38
2021/06/15 06:39:04;;;;;;;1.80;0.80;;;19.00;90.20;;;;;;5107931;28;20023;-39
2021/06/15 06:41:29;;;;;;;2.78;0.95;;;19.00;90.30;;;;;;5107586;28;20019;-41
2021/06/15 06:43:55;;;;;;;4.75;1.20;;;19.10;90.40;;;;;;5107841;28;20172;-39
2021/06/15 06:46:21;;;;;;;4.53;1.45;;;19.10;90.40;;;;;;5108561;28;20015;-40
2021/06/15 06:48:46;;;;;;;5.45;1.30;;;19.10;90.10;;;;;;5108029;28;20031;-40
2021/06/15 06:51:12;;;;;;;2.30;0.90;;;19.10;90.10;;;;;;5108474;28;20730;-39
2021/06/15 06:53:38;;;;;;;3.72;0.93;;;19.20;90.20;;;;;;5108163;28;20019;-39
2021/06/15 06:56:07;;;;;;;1.95;1.10;;;19.20;90.10;;;;;;5108008;28;20114;-39
2021/06/15 06:58:33;;;;;;;3.65;1.15;;;19.30;90.20;;;;;;5107510;28;20547;-38
2021/06/15 07:01:00;;;;;;;3.10;1.20;;;19.30;90.10;;;;;;5107453;28;20051;-40
2021/06/15 07:03:26;;;;;;;3.60;0.80;;;19.40;90.10;;;;;;5107461;28;20048;-40
2021/06/15 07:05:51;;;;;;;5.75;1.15;;;19.50;90.10;;;;;;5107560;28;20032;-39
2021/06/15 07:08:17;;;;;;;5.38;1.10;;;19.60;89.90;;;;;;5107600;28;20031;-41
2021/06/15 07:10:43;;;;;;;6.18;1.00;;;19.60;88.90;;;;;;5107334;28;20553;-37
2021/06/15 07:13:08;;;;;;;3.55;1.00;;;19.60;89.20;;;;;;5107582;28;20398;-39
2021/06/15 07:15:34;;;;;;;3.60;1.10;;;19.70;88.90;;;;;;5107115;28;20108;-33
2021/06/15 07:17:59;;;;;;;3.28;1.10;;;19.60;88.50;;;;;;5106883;28;20032;-39
2021/06/15 07:20:25;;;;;;;4.85;1.05;;;19.60;88.70;;;;;;5107495;28;20086;-37
2021/06/15 07:22:50;;;;;;;3.70;1.27;;;19.60;88.70;;;;;;5106533;28;20112;-38
2021/06/15 07:25:16;;;;;;;3.97;1.08;;;19.60;88.20;;;;;;5107281;28;20059;-39
2021/06/15 07:27:42;;;;;;;3.85;1.10;;;19.50;87.50;;;;;;5106902;28;20527;-39
2021/06/15 07:30:08;;;;;;;3.28;0.85;;;19.50;87.30;;;;;;5106935;28;20478;-38
2021/06/15 07:32:34;;;;;;;3.95;1.00;;;19.50;86.50;;;;;;5109774;27;20097;-37
2021/06/15 07:35:00;;;;;;;3.40;1.02;;;19.50;85.80;;;;;;5106483;28;20091;-36
2021/06/15 07:37:26;;;;;;;4.70;1.15;;;19.50;85.60;;;;;;5107413;28;20044;-36
2021/06/15 07:39:51;;;;;;;2.63;1.20;;;19.60;85.30;;;;;;5107121;28;20020;-40
2021/06/15 07:42:17;;;;;;;4.93;1.10;;;19.80;85.40;;;;;;5107338;28;20239;-40
2021/06/15 07:44:43;;;;;;;3.85;1.00;;;20.00;85.00;;;;;;5106424;28;20527;-39
2021/06/15 07:47:09;;;;;;;3.45;1.02;;;20.20;84.40;;;;;;5107110;28;20114;-39
2021/06/15 07:49:34;;;;;;;5.65;1.35;;;20.30;83.90;;;;;;5106908;28;20106;-39
2021/06/15 07:52:00;;;;;;;4.60;1.10;;;20.40;83.10;;;;;;5105770;28;20103;-40
2021/06/15 07:54:25;;;;;;;2.42;0.75;;;20.40;83.00;;;;;;5107191;28;20486;-39
2021/06/15 07:56:51;;;;;;;2.78;1.15;;;20.50;82.70;;;;;;5106217;28;20109;-42
2021/06/15 07:59:17;;;;;;;3.10;1.02;;;20.40;81.50;;;;;;5107037;28;20019;-39
2021/06/15 08:01:42;;;;;;;3.72;1.02;;;20.40;81.80;;;;;;5107208;28;20027;-36
2021/06/15 08:04:12;;;;;;;5.47;1.08;;;20.40;81.80;;;;;;5105532;28;20016;-40
2021/06/15 08:06:38;;;;;;;3.38;1.08;;;20.40;81.90;;;;;;5109506;28;20120;-40
2021/06/15 08:09:04;;;;;;;6.53;1.10;;;20.50;82.10;;;;;;5111089;28;20051;-42
2021/06/15 08:11:29;;;;;;;5.10;1.42;;;20.50;81.80;;;;;;5110673;28;20116;-40
2021/06/15 08:13:55;;;;;;;2.75;1.55;;;20.60;81.30;;;;;;5110232;28;20038;-39
2021/06/15 08:16:21;;;;;;;2.35;1.00;;;20.60;80.80;;;;;;5108661;28;20030;-37
2021/06/15 08:18:46;;;;;;;4.10;0.93;;;20.70;80.60;;;;;;5110454;28;20020;-41
2021/06/15 08:21:13;;;;;;;5.32;1.17;;;20.70;79.60;;;;;;5110978;28;20102;-37
2021/06/15 08:23:39;;;;;;;3.95;0.93;;;20.70;79.30;;;;;;5111071;28;20351;-37
2021/06/15 08:26:04;;;;;;;2.75;0.63;;;20.90;79.10;;;;;;5110016;28;20031;-41
2021/06/15 08:28:30;;;;;;;2.70;0.70;;;20.90;79.00;;;;;;5110844;28;20663;-41
2021/06/15 08:30:57;;;;;;;2.38;0.70;;;21.00;78.80;;;;;;5110700;27;20156;-41
2021/06/15 08:33:23;;;;;;;4.10;1.02;;;21.00;77.70;;;;;;5109761;28;20439;-38
2021/06/15 08:35:49;;;;;;;3.22;1.00;;;21.00;77.20;;;;;;5110280;28;20324;-37
2021/06/15 08:38:17;;;;;;;3.45;0.80;;;20.90;76.40;;;;;;5110571;28;20047;-40
2021/06/15 08:40:51;;;;;;;3.20;0.70;;;20.70;77.10;;;;;;5108908;28;20540;-37
2021/06/15 08:43:18;;;;;;;2.55;0.80;;;20.60;77.60;;;;;;5110161;28;20127;-36
2021/06/15 08:45:44;;;;;;;2.85;0.75;;;20.50;78.00;;;;;;5109805;28;20405;-39
2021/06/15 08:48:10;;;;;;;3.70;0.80;;;20.40;78.50;;;;;;5110085;28;20115;-34
2021/06/15 08:50:38;;;;;;;2.53;0.77;;;20.30;78.80;;;;;;5110025;28;20024;-34
2021/06/15 08:53:03;;;;;;;1.63;0.65;;;20.30;79.10;;;;;;5107858;28;20542;-35
2021/06/15 08:55:33;;;;;;;3.33;0.80;;;20.30;79.20;;;;;;5108562;28;20102;-40
2021/06/15 08:58:38;;;;;;;1.88;0.77;;;20.30;79.50;;;;;;5107445;28;20482;-39
2021/06/15 09:01:08;;;;;;;2.97;1.20;;;20.50;79.60;;;;;;5107505;28;20034;-39
2021/06/15 09:03:33;;;;;;;2.45;0.80;;;20.60;79.40;;;;;;5108311;28;20032;-40
2021/06/15 09:05:59;;;;;;;1.88;0.80;;;20.70;79.50;;;;;;5107835;28;20106;-37
2021/06/15 09:08:25;;;;;;;2.28;0.93;;;20.70;79.80;;;;;;5108471;28;20036;-41
2021/06/15 09:10:51;;;;;;;3.40;0.80;;;20.80;79.70;;;;;;5109935;28;20031;-38
2021/06/15 09:13:37;;;;;;;2.40;1.02;;;20.80;79.50;;;;;;5109664;28;20067;-36
2021/06/15 09:16:21;;;;;;;4.47;0.88;;;20.70;79.60;;;;;;5108881;28;20016;-37
2021/06/15 09:18:48;;;;;;;2.15;0.68;;;20.60;79.80;;;;;;5108899;28;20466;-39
2021/06/15 09:21:32;;;;;;;3.83;0.63;;;20.60;79.90;;;;;;5108537;28;20031;-46
2021/06/15 09:24:12;;;;;;;3.95;0.88;;;20.50;79.80;;;;;;5108715;28;20393;-40
2021/06/15 09:27:10;;;;;;;6.43;0.93;;;20.50;79.90;;;;;;5109756;28;20024;-37
2021/06/15 09:29:51;;;;;;;4.10;0.95;;;20.40;79.80;;;;;;5101179;28;20312;-40
2021/06/15 09:32:22;;;;;;;3.25;0.80;;;20.40;79.80;;;;;;5108605;28;20063;-37
2021/06/15 09:34:58;;;;;;;2.63;0.98;;;20.40;79.90;;;;;;5108913;28;20023;-40
2021/06/15 09:37:40;;;;;;;2.80;1.17;;;20.40;80.10;;;;;;5107742;28;20023;-37
2021/06/15 09:40:14;;;;;;;2.03;0.88;;;20.50;79.60;;;;;;5108218;28;20047;-40
2021/06/15 09:42:55;;;;;;;4.22;0.90;;;20.50;78.80;;;;;;5106746;28;20039;-40
2021/06/15 09:45:31;;;;;;;3.55;0.75;;;20.50;78.80;;;;;;5107567;28;20023;-41
2021/06/15 09:48:28;;;;;;;1.85;0.65;;;20.50;78.40;;;;;;5106931;28;20172;-37
2021/06/15 09:51:03;;;;;;;2.53;0.55;;;20.50;78.50;;;;;;5107019;28;20023;-36
2021/06/15 09:53:36;;;;;;;2.53;0.80;;;20.60;78.70;;;;;;5108722;28;20427;-40
2021/06/15 09:56:04;;;;;;;1.83;0.65;;;20.60;78.70;;;;;;5108425;28;20110;-43
2021/06/15 09:58:45;;;;;;;1.40;0.55;;;20.70;78.50;;;;;;5108765;28;20024;-38
2021/06/15 10:01:22;;;;;;;2.35;0.60;;;20.70;78.30;;;;;;5108964;28;20070;-40
2021/06/15 10:04:15;;;;;;;2.92;0.70;;;20.80;78.10;;;;;;5107400;28;20384;-39
2021/06/15 10:06:57;;;;;;;3.40;0.88;;;20.90;78.00;;;;;;5105995;28;20028;-39
2021/06/15 10:09:35;;;;;;;2.53;0.75;;;21.00;77.70;;;;;;5107204;28;20045;-40
2021/06/15 10:12:10;;;;;;;2.60;0.60;;;21.00;77.50;;;;;;5086108;28;20185;-39
2021/06/15 10:14:38;;;;;;;6.15;0.77;;;21.00;77.30;;;;;;5102595;28;20035;-39
2021/06/15 10:17:04;;;;;;;2.97;0.70;;;21.10;77.40;;;;;;5106246;28;20031;-39
2021/06/15 10:19:29;;;;;;;2.60;0.80;;;21.20;76.30;;;;;;5106337;28;20323;-36
2021/06/15 10:21:59;;;;;;;3.20;0.80;;;21.20;76.40;;;;;;5108015;28;20073;-39
2021/06/15 10:24:26;;;;;;;4.10;0.80;;;21.30;76.70;;;;;;5108562;28;20020;-39
2021/06/15 10:26:52;;;;;;;2.05;0.52;;;21.30;76.50;;;;;;5108041;28;20099;-39
2021/06/15 10:29:19;;;;;;;3.20;0.82;;;21.30;76.30;;;;;;5108007;28;20060;-40
2021/06/15 10:31:48;;;;;;;2.33;0.68;;;21.40;74.90;;;;;;5107801;28;20032;-38
2021/06/15 10:34:14;;;;;;;1.48;0.73;;;21.40;74.60;;;;;;5107822;28;20108;-38
2021/06/15 10:36:47;;;;;;;0.70;0.40;;;21.50;74.50;;;;;;5108286;28;20027;-39
2021/06/15 10:39:37;;;;;;;3.72;0.70;;;21.50;74.80;;;;;;5107984;27;20709;-40
2021/06/15 10:42:14;;;;;;;3.05;0.73;;;21.60;74.50;;;;;;5107266;28;20032;-39
2021/06/15 10:44:41;;;;;;;2.85;0.88;;;21.70;74.60;;;;;;5107661;28;20053;-38
2021/06/15 10:47:16;;;;;;;3.13;0.85;;;21.70;74.50;;;;;;5107545;28;20023;-41
2021/06/15 10:50:01;;;;;;;2.72;0.80;;;21.70;74.40;;;;;;5107681;28;20251;-40
2021/06/15 10:52:58;;;;;;;1.35;0.70;;;21.70;74.50;;;;;;5103699;28;20027;-38
2021/06/15 10:55:41;;;;;;;2.75;1.10;;;21.80;74.10;;;;;;5107695;28;20492;-40
2021/06/15 10:58:07;;;;;;;3.42;1.38;;;21.80;74.10;;;;;;5107972;28;20024;-41
2021/06/15 11:00:52;;;;;;;2.63;0.55;;;21.80;73.70;;;;;;5107358;28;20027;-38
2021/06/15 11:03:20;;;;;;;1.60;0.70;;;21.80;73.50;;;;;;5107679;28;20051;-41
2021/06/15 11:05:59;;;;;;;2.25;0.73;;;21.80;73.20;;;;;;5107879;28;20519;-41
2021/06/15 11:08:30;;;;;;;2.72;0.90;;;21.90;72.90;;;;;;5107211;28;20018;-38
2021/06/15 11:11:05;;;;;;;2.80;0.80;;;21.90;72.40;;;;;;5107225;28;20391;-40
2021/06/15 11:13:54;;;;;;;5.38;1.27;;;22.00;71.90;;;;;;5108014;28;20027;-39
2021/06/15 11:16:44;;;;;;;2.47;1.10;;;22.00;71.30;;;;;;5106915;28;20028;-40
2021/06/15 11:19:10;;;;;;;4.75;1.15;;;22.10;71.80;;;;;;5086925;28;20513;-41
2021/06/15 11:21:48;;;;;;;4.22;1.02;;;22.10;71.40;;;;;;5101816;28;20027;-43
2021/06/15 11:25:00;;;;;;;5.55;1.20;;;22.20;71.10;;;;;;5108419;28;20039;-38
2021/06/15 11:27:25;;;;;;;3.40;0.70;;;22.20;71.10;;;;;;5079161;28;20390;-40
2021/06/15 11:29:55;;;;;;;4.72;1.05;;;22.40;71.20;;;;;;5107614;28;20038;-39
2021/06/15 11:32:30;;;;;;;3.05;0.90;;;22.40;70.90;;;;;;5108048;28;20440;-37
2021/06/15 11:34:55;;;;;;;3.97;0.90;;;22.50;70.80;;;;;;5106333;28;20103;-38
2021/06/15 11:37:29;;;;;;;3.00;0.80;;;22.50;70.70;;;;;;5106614;28;20123;-39
2021/06/15 11:40:20;;;;;;;2.05;0.70;;;22.60;70.70;;;;;;5103748;28;20023;-39
2021/06/15 11:42:48;;;;;;;3.20;1.10;;;22.60;70.20;;;;;;5105115;28;20030;-40
2021/06/15 11:45:29;;;;;;;3.28;0.90;;;22.60;70.10;;;;;;5104412;28;20035;-41
2021/06/15 11:48:13;;;;;;;3.03;1.27;;;22.60;68.90;;;;;;5104962;28;20022;-39
2021/06/15 11:50:45;;;;;;;1.60;0.65;;;22.60;69.30;;;;;;5107970;28;20078;-40
2021/06/15 11:53:18;;;;;;;1.27;0.85;;;22.60;69.70;;;;;;5106720;28;20036;-40
2021/06/15 11:55:51;;;;;;;3.38;0.95;;;22.60;70.00;;;;;;5106755;28;20024;-37
2021/06/15 11:58:29;;;;;;;3.72;0.85;;;22.70;69.80;;;;;;5106365;28;20024;-36
2021/06/15 12:01:09;;;;;;;3.38;0.80;;;22.70;69.30;;;;;;5106804;28;20686;-39
2021/06/15 12:03:36;;;;;;;2.55;0.70;;;22.80;69.50;;;;;;5106434;28;20378;-40
2021/06/15 12:06:05;;;;;;;1.30;0.90;;;22.80;69.50;;;;;;5106544;28;20365;-38
2021/06/15 12:08:38;;;;;;;2.40;0.88;;;22.90;69.60;;;;;;5106866;28;20092;-40
2021/06/15 12:11:09;;;;;;;2.05;0.88;;;23.10;69.50;;;;;;5106229;28;20024;-39
2021/06/15 12:13:36;;;;;;;2.53;0.85;;;23.20;69.00;;;;;;5106963;28;20034;-39
2021/06/15 12:16:10;;;;;;;2.78;1.00;;;23.30;68.80;;;;;;5086530;28;20024;-39
2021/06/15 12:18:38;;;;;;;2.83;0.93;;;23.30;68.70;;;;;;5101745;28;20027;-38
2021/06/15 12:21:21;;;;;;;3.95;1.10;;;23.20;69.50;;;;;;5106220;28;20101;-40
2021/06/15 12:23:52;;;;;;;2.53;0.70;;;23.30;69.00;;;;;;5105896;28;20066;-39
2021/06/15 12:26:32;;;;;;;2.23;0.70;;;23.30;69.00;;;;;;5106406;28;20038;-39
2021/06/15 12:29:01;;;;;;;2.25;0.85;;;23.30;69.20;;;;;;5105713;28;20058;-39
2021/06/15 12:31:28;;;;;;;5.55;1.05;;;23.40;69.20;;;;;;5106107;28;20151;-39
2021/06/15 12:33:57;;;;;;;3.00;0.90;;;23.40;68.80;;;;;;5106319;28;20443;-38
2021/06/15 12:36:25;;;;;;;3.05;0.80;;;23.40;69.20;;;;;;5107023;28;20028;-39
2021/06/15 12:38:50;;;;;;;3.15;1.05;;;23.50;69.20;;;;;;5105722;28;20023;-39
2021/06/15 12:41:22;;;;;;;2.63;1.05;;;23.60;68.80;;;;;;5106463;28;20085;-39
2021/06/15 12:43:50;;;;;;;4.70;1.20;;;23.60;68.30;;;;;;5106235;28;20126;-40
2021/06/15 12:46:37;;;;;;;2.30;0.73;;;23.70;68.10;;;;;;5106049;28;20031;-39
2021/06/15 12:49:09;;;;;;;2.63;0.90;;;23.80;68.30;;;;;;5105448;28;20482;-38
2021/06/15 12:51:44;;;;;;;;;;;23.80;68.40;;;;;;5106924;28;20047;-40
2021/06/15 12:54:29;;;;;;;3.70;0.80;;;23.80;68.60;;;;;;5098838;28;20304;-40
2021/06/15 12:56:59;;;;;;;3.53;1.25;;;23.80;68.10;;;;;;5108112;28;20034;-41
2021/06/15 12:59:29;;;;;;;2.70;1.00;;;23.90;67.10;;;;;;5107846;28;20210;-39
2021/06/15 13:01:57;;;;;;;3.22;0.95;;;23.80;67.40;;;;;;5107654;28;20023;-39
2021/06/15 13:04:27;;;;;;;2.33;1.13;;;23.80;67.40;;;;;;5108331;28;20075;-39
2021/06/15 13:06:54;;;;;;;2.50;0.93;;;23.80;67.80;;;;;;5107256;28;20317;-38
2021/06/15 13:09:25;;;;;;;2.40;0.80;;;23.80;67.80;;;;;;5108108;28;20015;-38